sensor_id;sensor_type;location;lat;lon;timestamp;pressure;altitude;pressure_sealevel;temperature;humidity
55149;BME280;49539;48.160;11.530;2022-07-18T00:00:05;96556.97;;;18.74;100.00
55149;BME280;49539;48.160;11.530;2022-07-18T00:02:33;96563.09;;;18.69;100.00
55149;BME280;49539;48.160;11.530;2022-07-18T00:04:59;96563.59;;;18.76;100.00
55149;BME280;49539;48.160;11.530;2022-07-18T00:07:24;96567.41;;;18.70;100.00
55149;BME280;49539;48.160;11.530;2022-07-18T00:09:50;96567.31;;;18.51;100.00
55149;BME280;49539;48.160;11.530;2022-07-18T00:12:16;96567.63;;;18.44;100.00
55149;BME280;49539;48.160;11.530;2022-07-18T00:14:41;96563.50;;;18.49;100.00
55149;BME280;49539;48.160;11.530;2022-07-18T00:17:07;96569.31;;;18.42;100.00
55149;BME280;49539;48.160;11.530;2022-07-18T00:19:34;96569.28;;;18.32;100.00
55149;BME280;49539;48.160;11.530;2022-07-18T00:21:59;96565.88;;;18.19;100.00
55149;BME280;49539;48.160;11.530;2022-07-18T00:24:26;96570.00;;;18.15;100.00
55149;BME280;49539;48.160;11.530;2022-07-18T00:26:51;96564.28;;;18.00;100.00
55149;BME280;49539;48.160;11.530;2022-07-18T00:29:17;96570.41;;;17.95;100.00
55149;BME280;49539;48.160;11.530;2022-07-18T00:31:42;96565.78;;;17.92;100.00
55149;BME280;49539;48.160;11.530;2022-07-18T00:34:08;96571.56;;;17.84;100.00
55149;BME280;49539;48.160;11.530;2022-07-18T00:36:33;96562.03;;;17.76;100.00
55149;BME280;49539;48.160;11.530;2022-07-18T00:38:59;96570.41;;;17.73;100.00
55149;BME280;49539;48.160;11.530;2022-07-18T00:41:25;96568.69;;;17.66;100.00
55149;BME280;49539;48.160;11.530;2022-07-18T00:43:51;96577.84;;;17.63;100.00
55149;BME280;49539;48.160;11.530;2022-07-18T00:46:21;96559.03;;;17.61;100.00
55149;BME280;49539;48.160;11.530;2022-07-18T00:48:47;96566.19;;;17.59;100.00
55149;BME280;49539;48.160;11.530;2022-07-18T00:51:13;96563.06;;;17.48;100.00
55149;BME280;49539;48.160;11.530;2022-07-18T00:53:38;96556.94;;;17.44;100.00
55149;BME280;49539;48.160;11.530;2022-07-18T00:56:04;96560.13;;;17.42;100.00
55149;BME280;49539;48.160;11.530;2022-07-18T00:58:30;96559.38;;;17.42;100.00
55149;BME280;49539;48.160;11.530;2022-07-18T01:00:56;96556.41;;;17.36;100.00
55149;BME280;49539;48.160;11.530;2022-07-18T01:03:45;96553.03;;;17.32;100.00
55149;BME280;49539;48.160;11.530;2022-07-18T01:06:10;96558.53;;;17.32;100.00
55149;BME280;49539;48.160;11.530;2022-07-18T01:08:36;96555.78;;;17.32;100.00
55149;BME280;49539;48.160;11.530;2022-07-18T01:11:03;96558.47;;;17.23;100.00
55149;BME280;49539;48.160;11.530;2022-07-18T01:13:28;96553.31;;;17.25;100.00
55149;BME280;49539;48.160;11.530;2022-07-18T01:15:53;96556.31;;;17.18;100.00
55149;BME280;49539;48.160;11.530;2022-07-18T01:18:19;96559.19;;;17.14;100.00
55149;BME280;49539;48.160;11.530;2022-07-18T01:20:44;96553.81;;;17.10;100.00
55149;BME280;49539;48.160;11.530;2022-07-18T01:23:10;96558.34;;;17.04;100.00
55149;BME280;49539;48.160;11.530;2022-07-18T01:25:35;96557.44;;;17.07;100.00
55149;BME280;49539;48.160;11.530;2022-07-18T01:28:00;96559.13;;;17.05;100.00
55149;BME280;49539;48.160;11.530;2022-07-18T01:30:26;96559.13;;;17.05;100.00
55149;BME280;49539;48.160;11.530;2022-07-18T01:32:59;96559.88;;;17.05;100.00
55149;BME280;49539;48.160;11.530;2022-07-18T01:35:26;96562.31;;;17.03;100.00
55149;BME280;49539;48.160;11.530;2022-07-18T01:37:54;96557.06;;;16.96;100.00
55149;BME280;49539;48.160;11.530;2022-07-18T01:40:20;96563.59;;;16.90;100.00
55149;BME280;49539;48.160;11.530;2022-07-18T01:42:46;96568.00;;;16.87;100.00
55149;BME280;49539;48.160;11.530;2022-07-18T01:45:12;96567.78;;;16.81;100.00
55149;BME280;49539;48.160;11.530;2022-07-18T01:47:38;96570.66;;;16.78;100.00
55149;BME280;49539;48.160;11.530;2022-07-18T01:50:04;96567.91;;;16.78;100.00
55149;BME280;49539;48.160;11.530;2022-07-18T01:52:30;96568.69;;;16.78;100.00
55149;BME280;49539;48.160;11.530;2022-07-18T01:54:55;96574.41;;;16.71;100.00
55149;BME280;49539;48.160;11.530;2022-07-18T01:57:20;96570.78;;;16.61;100.00
55149;BME280;49539;48.160;11.530;2022-07-18T01:59:46;96571.25;;;16.60;100.00
55149;BME280;49539;48.160;11.530;2022-07-18T02:02:11;96564.44;;;16.52;100.00
55149;BME280;49539;48.160;11.530;2022-07-18T02:04:37;96559.59;;;16.56;100.00
55149;BME280;49539;48.160;11.530;2022-07-18T02:07:21;96562.47;;;16.52;100.00
55149;BME280;49539;48.160;11.530;2022-07-18T02:09:47;96566.66;;;16.44;100.00
55149;BME280;49539;48.160;11.530;2022-07-18T02:12:12;96566.19;;;16.46;100.00
55149;BME280;49539;48.160;11.530;2022-07-18T02:14:38;96562.38;;;16.43;100.00
55149;BME280;49539;48.160;11.530;2022-07-18T02:17:03;96562.03;;;16.41;100.00
55149;BME280;49539;48.160;11.530;2022-07-18T02:19:29;96565.56;;;16.42;100.00
55149;BME280;49539;48.160;11.530;2022-07-18T02:21:54;96559.75;;;16.40;100.00
55149;BME280;49539;48.160;11.530;2022-07-18T02:24:19;96559.41;;;16.37;100.00
55149;BME280;49539;48.160;11.530;2022-07-18T02:26:45;96561.38;;;16.37;100.00
55149;BME280;49539;48.160;11.530;2022-07-18T02:29:10;96560.41;;;16.31;100.00
55149;BME280;49539;48.160;11.530;2022-07-18T02:31:36;96555.03;;;16.27;100.00
55149;BME280;49539;48.160;11.530;2022-07-18T02:34:02;96553.16;;;16.24;100.00
55149;BME280;49539;48.160;11.530;2022-07-18T02:36:36;96547.91;;;16.17;100.00
55149;BME280;49539;48.160;11.530;2022-07-18T02:39:03;96549.88;;;16.17;100.00
55149;BME280;49539;48.160;11.530;2022-07-18T02:41:28;96550.53;;;16.21;100.00
55149;BME280;49539;48.160;11.530;2022-07-18T02:43:54;96562.41;;;16.18;100.00
55149;BME280;49539;48.160;11.530;2022-07-18T02:46:19;96552.97;;;16.06;100.00
55149;BME280;49539;48.160;11.530;2022-07-18T02:48:44;96551.44;;;16.05;100.00
55149;BME280;49539;48.160;11.530;2022-07-18T02:51:10;96560.34;;;16.09;100.00
55149;BME280;49539;48.160;11.530;2022-07-18T02:53:35;96561.31;;;16.02;100.00
55149;BME280;49539;48.160;11.530;2022-07-18T02:56:00;96570.34;;;16.03;100.00
55149;BME280;49539;48.160;11.530;2022-07-18T02:58:26;96559.13;;;15.97;100.00
55149;BME280;49539;48.160;11.530;2022-07-18T03:00:51;96562.84;;;15.91;100.00
55149;BME280;49539;48.160;11.530;2022-07-18T03:03:16;96557.72;;;15.93;100.00
55149;BME280;49539;48.160;11.530;2022-07-18T03:05:42;96563.19;;;15.93;100.00
55149;BME280;49539;48.160;11.530;2022-07-18T03:08:07;96560.66;;;15.85;100.00
55149;BME280;49539;48.160;11.530;2022-07-18T03:10:33;96561.75;;;15.88;100.00
55149;BME280;49539;48.160;11.530;2022-07-18T03:12:58;96565.72;;;15.87;100.00
55149;BME280;49539;48.160;11.530;2022-07-18T03:15:23;96568.66;;;15.80;100.00
55149;BME280;49539;48.160;11.530;2022-07-18T03:17:49;96564.06;;;15.77;100.00
55149;BME280;49539;48.160;11.530;2022-07-18T03:20:14;96573.63;;;15.72;100.00
55149;BME280;49539;48.160;11.530;2022-07-18T03:22:39;96570.88;;;15.72;100.00
55149;BME280;49539;48.160;11.530;2022-07-18T03:25:05;96574.34;;;15.60;100.00
55149;BME280;49539;48.160;11.530;2022-07-18T03:27:30;96580.50;;;15.64;100.00
55149;BME280;49539;48.160;11.530;2022-07-18T03:29:56;96589.63;;;15.61;100.00
55149;BME280;49539;48.160;11.530;2022-07-18T03:32:21;96583.56;;;15.53;100.00
55149;BME280;49539;48.160;11.530;2022-07-18T03:34:47;96585.63;;;15.49;100.00
55149;BME280;49539;48.160;11.530;2022-07-18T03:37:12;96591.47;;;15.51;100.00
55149;BME280;49539;48.160;11.530;2022-07-18T03:39:38;96599.94;;;15.57;100.00
55149;BME280;49539;48.160;11.530;2022-07-18T03:42:03;96590.84;;;15.60;100.00
55149;BME280;49539;48.160;11.530;2022-07-18T03:44:28;96598.41;;;15.56;100.00
55149;BME280;49539;48.160;11.530;2022-07-18T03:46:54;96599.94;;;15.57;100.00
55149;BME280;49539;48.160;11.530;2022-07-18T03:49:19;96609.38;;;15.56;100.00
55149;BME280;49539;48.160;11.530;2022-07-18T03:51:45;96613.31;;;15.55;100.00
55149;BME280;49539;48.160;11.530;2022-07-18T03:54:10;96616.41;;;15.57;100.00
55149;BME280;49539;48.160;11.530;2022-07-18T03:56:37;96607.81;;;15.55;100.00
55149;BME280;49539;48.160;11.530;2022-07-18T03:59:02;96613.84;;;15.50;100.00
55149;BME280;49539;48.160;11.530;2022-07-18T04:01:28;96610.03;;;15.47;100.00
55149;BME280;49539;48.160;11.530;2022-07-18T04:03:53;96605.72;;;15.46;100.00
55149;BME280;49539;48.160;11.530;2022-07-18T04:06:19;96600.78;;;15.41;100.00
55149;BME280;49539;48.160;11.530;2022-07-18T04:08:44;96597.72;;;15.39;100.00
55149;BME280;49539;48.160;11.530;2022-07-18T04:11:10;96607.38;;;15.44;100.00
55149;BME280;49539;48.160;11.530;2022-07-18T04:13:35;96606.06;;;15.48;100.00
55149;BME280;49539;48.160;11.530;2022-07-18T04:16:00;96610.88;;;15.44;100.00
55149;BME280;49539;48.160;11.530;2022-07-18T04:18:26;96602.97;;;15.46;100.00
55149;BME280;49539;48.160;11.530;2022-07-18T04:20:51;96602.56;;;15.48;100.00
55149;BME280;49539;48.160;11.530;2022-07-18T04:23:17;96600.59;;;15.61;100.00
55149;BME280;49539;48.160;11.530;2022-07-18T04:25:43;96603.53;;;15.54;100.00
55149;BME280;49539;48.160;11.530;2022-07-18T04:28:10;96610.16;;;15.56;100.00
55149;BME280;49539;48.160;11.530;2022-07-18T04:30:37;96610.47;;;15.58;100.00
55149;BME280;49539;48.160;11.530;2022-07-18T04:33:05;96607.91;;;15.68;100.00
55149;BME280;49539;48.160;11.530;2022-07-18T04:35:32;96607.47;;;15.69;100.00
55149;BME280;49539;48.160;11.530;2022-07-18T04:37:58;96605.56;;;15.66;100.00
55149;BME280;49539;48.160;11.530;2022-07-18T04:40:23;96602.47;;;15.64;100.00
55149;BME280;49539;48.160;11.530;2022-07-18T04:42:48;96599.53;;;15.71;100.00
55149;BME280;49539;48.160;11.530;2022-07-18T04:45:14;96600.75;;;15.83;100.00
55149;BME280;49539;48.160;11.530;2022-07-18T04:47:40;96605.94;;;15.94;100.00
55149;BME280;49539;48.160;11.530;2022-07-18T04:50:06;96600.91;;;16.05;100.00
55149;BME280;49539;48.160;11.530;2022-07-18T04:52:40;96598.47;;;16.07;100.00
55149;BME280;49539;48.160;11.530;2022-07-18T04:55:07;96603.09;;;16.10;100.00
55149;BME280;49539;48.160;11.530;2022-07-18T04:57:33;96598.91;;;16.18;100.00
55149;BME280;49539;48.160;11.530;2022-07-18T05:00:00;96598.44;;;16.32;100.00
55149;BME280;49539;48.160;11.530;2022-07-18T05:02:25;96597.91;;;16.50;100.00
55149;BME280;49539;48.160;11.530;2022-07-18T05:04:51;96595.78;;;16.67;100.00
55149;BME280;49539;48.160;11.530;2022-07-18T05:07:16;96592.03;;;16.74;100.00
55149;BME280;49539;48.160;11.530;2022-07-18T05:09:42;96596.53;;;16.80;100.00
55149;BME280;49539;48.160;11.530;2022-07-18T05:12:07;96597.38;;;16.90;100.00
55149;BME280;49539;48.160;11.530;2022-07-18T05:14:32;96597.00;;;17.01;100.00
55149;BME280;49539;48.160;11.530;2022-07-18T05:16:58;96587.88;;;17.04;100.00
55149;BME280;49539;48.160;11.530;2022-07-18T05:19:23;96594.13;;;17.04;100.00
55149;BME280;49539;48.160;11.530;2022-07-18T05:21:48;96593.56;;;17.09;100.00
55149;BME280;49539;48.160;11.530;2022-07-18T05:24:14;96590.56;;;17.17;100.00
55149;BME280;49539;48.160;11.530;2022-07-18T05:26:39;96585.88;;;17.26;100.00
55149;BME280;49539;48.160;11.530;2022-07-18T05:29:05;96580.38;;;17.26;100.00
55149;BME280;49539;48.160;11.530;2022-07-18T05:31:30;96576.91;;;17.35;100.00
55149;BME280;49539;48.160;11.530;2022-07-18T05:33:55;96586.28;;;17.38;100.00
55149;BME280;49539;48.160;11.530;2022-07-18T05:36:21;96587.81;;;17.39;100.00
55149;BME280;49539;48.160;11.530;2022-07-18T05:38:47;96582.44;;;17.57;100.00
55149;BME280;49539;48.160;11.530;2022-07-18T05:41:12;96587.53;;;17.68;100.00
55149;BME280;49539;48.160;11.530;2022-07-18T05:43:37;96583.63;;;17.78;100.00
55149;BME280;49539;48.160;11.530;2022-07-18T05:46:03;96581.34;;;17.85;100.00
55149;BME280;49539;48.160;11.530;2022-07-18T05:48:28;96585.69;;;17.96;100.00
55149;BME280;49539;48.160;11.530;2022-07-18T05:50:54;96588.63;;;18.01;100.00
55149;BME280;49539;48.160;11.530;2022-07-18T05:53:19;96584.44;;;18.19;100.00
55149;BME280;49539;48.160;11.530;2022-07-18T05:55:45;96580.00;;;18.30;100.00
55149;BME280;49539;48.160;11.530;2022-07-18T05:58:10;96581.25;;;18.39;100.00
55149;BME280;49539;48.160;11.530;2022-07-18T06:00:35;96576.06;;;18.41;100.00
55149;BME280;49539;48.160;11.530;2022-07-18T06:03:01;96580.81;;;18.49;100.00
55149;BME280;49539;48.160;11.530;2022-07-18T06:05:26;96584.53;;;18.65;100.00
55149;BME280;49539;48.160;11.530;2022-07-18T06:07:54;96579.19;;;18.70;100.00
55149;BME280;49539;48.160;11.530;2022-07-18T06:10:20;96576.16;;;18.77;100.00
55149;BME280;49539;48.160;11.530;2022-07-18T06:12:45;96570.63;;;18.87;100.00
55149;BME280;49539;48.160;11.530;2022-07-18T06:15:12;96574.16;;;18.96;100.00
55149;BME280;49539;48.160;11.530;2022-07-18T06:17:38;96576.00;;;18.99;100.00
55149;BME280;49539;48.160;11.530;2022-07-18T06:20:04;96575.56;;;19.10;100.00
55149;BME280;49539;48.160;11.530;2022-07-18T06:22:30;96572.16;;;19.24;100.00
55149;BME280;49539;48.160;11.530;2022-07-18T06:24:55;96572.13;;;19.33;100.00
55149;BME280;49539;48.160;11.530;2022-07-18T06:27:21;96576.91;;;19.42;100.00
55149;BME280;49539;48.160;11.530;2022-07-18T06:29:47;96578.13;;;19.50;100.00
55149;BME280;49539;48.160;11.530;2022-07-18T06:32:12;96570.72;;;19.56;100.00
55149;BME280;49539;48.160;11.530;2022-07-18T06:34:37;96576.56;;;19.68;100.00
55149;BME280;49539;48.160;11.530;2022-07-18T06:37:03;96573.78;;;19.77;100.00
55149;BME280;49539;48.160;11.530;2022-07-18T06:39:28;96568.66;;;19.94;100.00
55149;BME280;49539;48.160;11.530;2022-07-18T06:41:53;96568.94;;;20.05;100.00
55149;BME280;49539;48.160;11.530;2022-07-18T06:44:19;96562.09;;;20.15;100.00
55149;BME280;49539;48.160;11.530;2022-07-18T06:46:44;96561.78;;;20.22;100.00
55149;BME280;49539;48.160;11.530;2022-07-18T06:49:09;96562.72;;;20.43;100.00
55149;BME280;49539;48.160;11.530;2022-07-18T06:51:35;96565.22;;;20.65;100.00
55149;BME280;49539;48.160;11.530;2022-07-18T06:54:00;96568.25;;;20.76;100.00
55149;BME280;49539;48.160;11.530;2022-07-18T06:56:26;96576.38;;;20.80;100.00
55149;BME280;49539;48.160;11.530;2022-07-18T06:58:52;96569.66;;;20.72;100.00
55149;BME280;49539;48.160;11.530;2022-07-18T07:01:19;96573.31;;;20.78;100.00
55149;BME280;49539;48.160;11.530;2022-07-18T07:03:45;96583.25;;;20.85;100.00
55149;BME280;49539;48.160;11.530;2022-07-18T07:06:11;96576.69;;;20.97;100.00
55149;BME280;49539;48.160;11.530;2022-07-18T07:08:37;96568.81;;;21.04;100.00
55149;BME280;49539;48.160;11.530;2022-07-18T07:11:03;96582.56;;;21.14;100.00
55149;BME280;49539;48.160;11.530;2022-07-18T07:13:29;96584.22;;;21.20;100.00
55149;BME280;49539;48.160;11.530;2022-07-18T07:15:54;96585.38;;;21.28;100.00
55149;BME280;49539;48.160;11.530;2022-07-18T07:18:20;96583.84;;;21.27;100.00
55149;BME280;49539;48.160;11.530;2022-07-18T07:20:45;96586.56;;;21.37;100.00
55149;BME280;49539;48.160;11.530;2022-07-18T07:23:11;96582.44;;;21.47;100.00
55149;BME280;49539;48.160;11.530;2022-07-18T07:25:37;96582.47;;;21.62;100.00
55149;BME280;49539;48.160;11.530;2022-07-18T07:28:04;96585.53;;;21.78;93.95
55149;BME280;49539;48.160;11.530;2022-07-18T07:30:30;96581.78;;;21.96;89.57
55149;BME280;49539;48.160;11.530;2022-07-18T07:32:56;96582.25;;;22.10;88.97
55149;BME280;49539;48.160;11.530;2022-07-18T07:35:21;96588.19;;;22.17;86.44
55149;BME280;49539;48.160;11.530;2022-07-18T07:37:52;96589.06;;;22.23;89.37
55149;BME280;49539;48.160;11.530;2022-07-18T07:40:18;96582.41;;;22.36;76.79
55149;BME280;49539;48.160;11.530;2022-07-18T07:42:43;96571.94;;;22.45;71.34
55149;BME280;49539;48.160;11.530;2022-07-18T07:45:10;96577.84;;;22.53;59.22
55149;BME280;49539;48.160;11.530;2022-07-18T07:47:36;96576.41;;;22.58;58.45
55149;BME280;49539;48.160;11.530;2022-07-18T07:50:02;96576.75;;;22.65;53.36
55149;BME280;49539;48.160;11.530;2022-07-18T07:52:29;96575.72;;;22.83;56.68
55149;BME280;49539;48.160;11.530;2022-07-18T07:54:55;96572.75;;;22.87;54.98
55149;BME280;49539;48.160;11.530;2022-07-18T07:57:21;96567.84;;;22.96;49.36
55149;BME280;49539;48.160;11.530;2022-07-18T07:59:46;96573.16;;;23.00;54.19
55149;BME280;49539;48.160;11.530;2022-07-18T08:02:12;96569.72;;;23.05;53.89
55149;BME280;49539;48.160;11.530;2022-07-18T08:04:37;96568.31;;;23.15;51.93
55149;BME280;49539;48.160;11.530;2022-07-18T08:07:03;96567.66;;;23.26;54.16
55149;BME280;49539;48.160;11.530;2022-07-18T08:09:29;96561.69;;;23.33;51.07
55149;BME280;49539;48.160;11.530;2022-07-18T08:11:54;96562.28;;;23.43;48.65
55149;BME280;49539;48.160;11.530;2022-07-18T08:14:20;96567.13;;;23.48;46.81
55149;BME280;49539;48.160;11.530;2022-07-18T08:16:45;96558.56;;;23.51;45.09
55149;BME280;49539;48.160;11.530;2022-07-18T08:19:11;96562.16;;;23.58;44.04
55149;BME280;49539;48.160;11.530;2022-07-18T08:21:36;96564.41;;;23.80;47.27
55149;BME280;49539;48.160;11.530;2022-07-18T08:24:01;96567.75;;;23.84;48.84
55149;BME280;49539;48.160;11.530;2022-07-18T08:26:27;96564.84;;;23.72;44.33
55149;BME280;49539;48.160;11.530;2022-07-18T08:28:52;96559.09;;;23.82;42.25
55149;BME280;49539;48.160;11.530;2022-07-18T08:31:18;96562.28;;;23.95;41.30
55149;BME280;49539;48.160;11.530;2022-07-18T08:33:45;96556.53;;;24.04;39.83
55149;BME280;49539;48.160;11.530;2022-07-18T08:36:10;96562.66;;;24.14;40.84
55149;BME280;49539;48.160;11.530;2022-07-18T08:38:36;96558.19;;;24.27;42.22
55149;BME280;49539;48.160;11.530;2022-07-18T08:41:02;96557.03;;;24.40;39.72
55149;BME280;49539;48.160;11.530;2022-07-18T08:43:28;96565.59;;;24.36;38.80
55149;BME280;49539;48.160;11.530;2022-07-18T08:45:56;96564.19;;;24.52;38.50
55149;BME280;49539;48.160;11.530;2022-07-18T08:48:22;96550.03;;;24.56;39.00
55149;BME280;49539;48.160;11.530;2022-07-18T08:50:48;96555.44;;;24.76;39.82
55149;BME280;49539;48.160;11.530;2022-07-18T08:53:15;96553.97;;;24.86;39.56
55149;BME280;49539;48.160;11.530;2022-07-18T08:55:42;96554.50;;;24.96;37.50
55149;BME280;49539;48.160;11.530;2022-07-18T08:58:07;96554.75;;;24.87;35.20
55149;BME280;49539;48.160;11.530;2022-07-18T09:00:34;96552.00;;;24.98;39.22
55149;BME280;49539;48.160;11.530;2022-07-18T09:03:00;96551.94;;;24.81;35.74
55149;BME280;49539;48.160;11.530;2022-07-18T09:05:27;96546.91;;;24.96;35.37
55149;BME280;49539;48.160;11.530;2022-07-18T09:08:07;96539.81;;;24.90;34.96
55149;BME280;49539;48.160;11.530;2022-07-18T09:10:54;96546.19;;;25.07;34.31
55149;BME280;49539;48.160;11.530;2022-07-18T09:16:10;96552.38;;;25.28;36.02
55149;BME280;49539;48.160;11.530;2022-07-18T09:18:38;96545.03;;;25.31;34.04
55149;BME280;49539;48.160;11.530;2022-07-18T09:21:15;96547.03;;;25.30;32.90
55149;BME280;49539;48.160;11.530;2022-07-18T09:23:48;96550.13;;;25.49;33.59
55149;BME280;49539;48.160;11.530;2022-07-18T09:26:34;96544.81;;;25.62;33.13
55149;BME280;49539;48.160;11.530;2022-07-18T09:29:02;96542.03;;;25.73;31.64
55149;BME280;49539;48.160;11.530;2022-07-18T09:31:28;96536.50;;;25.85;31.25
55149;BME280;49539;48.160;11.530;2022-07-18T09:33:56;96538.22;;;25.77;31.73
55149;BME280;49539;48.160;11.530;2022-07-18T09:36:22;96539.53;;;25.92;32.40
55149;BME280;49539;48.160;11.530;2022-07-18T09:38:48;96540.81;;;25.97;32.58
55149;BME280;49539;48.160;11.530;2022-07-18T09:41:13;96542.56;;;26.06;32.00
55149;BME280;49539;48.160;11.530;2022-07-18T09:43:40;96535.66;;;26.29;30.04
55149;BME280;49539;48.160;11.530;2022-07-18T09:46:07;96535.66;;;26.29;32.54
55149;BME280;49539;48.160;11.530;2022-07-18T09:48:33;96536.22;;;26.11;31.41
55149;BME280;49539;48.160;11.530;2022-07-18T09:51:01;96552.16;;;26.33;31.78
55149;BME280;49539;48.160;11.530;2022-07-18T09:53:35;96547.34;;;26.28;32.20
55149;BME280;49539;48.160;11.530;2022-07-18T09:56:04;96551.41;;;26.32;30.24
55149;BME280;49539;48.160;11.530;2022-07-18T09:58:31;96544.06;;;26.23;30.32
55149;BME280;49539;48.160;11.530;2022-07-18T10:00:59;96539.75;;;26.22;29.99
55149;BME280;49539;48.160;11.530;2022-07-18T10:03:26;96540.72;;;26.42;31.10
55149;BME280;49539;48.160;11.530;2022-07-18T10:05:53;96537.69;;;26.34;30.93
55149;BME280;49539;48.160;11.530;2022-07-18T10:08:21;96537.44;;;26.38;30.45
55149;BME280;49539;48.160;11.530;2022-07-18T10:10:50;96525.19;;;26.69;29.89
55149;BME280;49539;48.160;11.530;2022-07-18T10:13:17;96525.97;;;26.64;30.09
55149;BME280;49539;48.160;11.530;2022-07-18T10:15:45;96530.53;;;26.67;29.96
55149;BME280;49539;48.160;11.530;2022-07-18T10:18:14;96524.38;;;26.80;28.62
55149;BME280;49539;48.160;11.530;2022-07-18T10:20:46;96516.91;;;27.05;29.25
55149;BME280;49539;48.160;11.530;2022-07-18T10:26:24;96522.63;;;27.29;30.77
55149;BME280;49539;48.160;11.530;2022-07-18T10:31:33;96530.84;;;27.16;28.41
55149;BME280;49539;48.160;11.530;2022-07-18T10:39:19;96525.19;;;27.63;29.04
55149;BME280;49539;48.160;11.530;2022-07-18T11:00:16;96512.63;;;28.11;29.32
55149;BME280;49539;48.160;11.530;2022-07-18T11:02:47;96508.00;;;28.13;29.39
55149;BME280;49539;48.160;11.530;2022-07-18T11:21:23;96497.22;;;28.91;29.74
55149;BME280;49539;48.160;11.530;2022-07-18T11:23:52;96492.16;;;29.08;28.62
55149;BME280;49539;48.160;11.530;2022-07-18T11:26:24;96490.03;;;29.14;27.71
55149;BME280;49539;48.160;11.530;2022-07-18T11:29:07;96479.56;;;29.34;28.18
55149;BME280;49539;48.160;11.530;2022-07-18T11:34:16;96490.78;;;29.34;28.54
55149;BME280;49539;48.160;11.530;2022-07-18T11:36:44;96485.47;;;29.30;29.41
55149;BME280;49539;48.160;11.530;2022-07-18T11:39:10;96484.94;;;29.51;28.55
55149;BME280;49539;48.160;11.530;2022-07-18T11:41:37;96485.13;;;29.72;26.33
55149;BME280;49539;48.160;11.530;2022-07-18T11:44:05;96475.97;;;29.52;28.31
55149;BME280;49539;48.160;11.530;2022-07-18T11:46:31;96478.41;;;29.75;27.53
55149;BME280;49539;48.160;11.530;2022-07-18T11:49:05;96480.00;;;29.57;26.99
55149;BME280;49539;48.160;11.530;2022-07-18T11:51:40;96479.69;;;29.60;28.14
55149;BME280;49539;48.160;11.530;2022-07-18T11:54:06;96475.59;;;29.75;28.28
55149;BME280;49539;48.160;11.530;2022-07-18T11:56:32;96472.31;;;29.89;29.05
55149;BME280;49539;48.160;11.530;2022-07-18T11:58:58;96467.72;;;30.19;26.40
55149;BME280;49539;48.160;11.530;2022-07-18T12:01:33;96465.66;;;30.19;27.95
55149;BME280;49539;48.160;11.530;2022-07-18T12:03:59;96469.03;;;30.31;28.96
55149;BME280;49539;48.160;11.530;2022-07-18T12:06:25;96465.22;;;30.68;25.24
55149;BME280;49539;48.160;11.530;2022-07-18T12:08:57;96468.19;;;30.49;27.34
55149;BME280;49539;48.160;11.530;2022-07-18T12:11:33;96472.22;;;31.01;25.79
55149;BME280;49539;48.160;11.530;2022-07-18T12:14:22;96468.56;;;30.93;25.29
55149;BME280;49539;48.160;11.530;2022-07-18T12:16:55;96460.56;;;30.84;26.04
55149;BME280;49539;48.160;11.530;2022-07-18T12:19:23;96462.78;;;31.12;27.53
55149;BME280;49539;48.160;11.530;2022-07-18T12:22:03;96461.97;;;31.25;24.74
55149;BME280;49539;48.160;11.530;2022-07-18T12:30:01;96447.72;;;31.44;24.89
55149;BME280;49539;48.160;11.530;2022-07-18T12:32:36;96451.44;;;31.04;25.79
55149;BME280;49539;48.160;11.530;2022-07-18T12:35:04;96439.66;;;31.40;26.08
55149;BME280;49539;48.160;11.530;2022-07-18T12:37:30;96449.84;;;31.30;27.43
55149;BME280;49539;48.160;11.530;2022-07-18T12:39:57;96440.31;;;31.33;25.40
55149;BME280;49539;48.160;11.530;2022-07-18T12:42:31;96445.84;;;30.91;26.56
55149;BME280;49539;48.160;11.530;2022-07-18T12:44:57;96440.34;;;31.20;27.70
55149;BME280;49539;48.160;11.530;2022-07-18T12:47:22;96447.22;;;30.98;26.93
55149;BME280;49539;48.160;11.530;2022-07-18T12:49:48;96439.78;;;31.34;27.65
55149;BME280;49539;48.160;11.530;2022-07-18T12:52:13;96442.44;;;31.06;27.00
55149;BME280;49539;48.160;11.530;2022-07-18T12:54:38;96449.00;;;31.22;25.75
55149;BME280;49539;48.160;11.530;2022-07-18T12:57:04;96430.22;;;31.58;27.41
55149;BME280;49539;48.160;11.530;2022-07-18T12:59:29;96441.91;;;31.62;26.40
55149;BME280;49539;48.160;11.530;2022-07-18T13:01:55;96436.00;;;31.74;24.39
55149;BME280;49539;48.160;11.530;2022-07-18T13:04:20;96439.16;;;31.91;24.61
55149;BME280;49539;48.160;11.530;2022-07-18T13:06:46;96440.94;;;31.81;25.06
55149;BME280;49539;48.160;11.530;2022-07-18T13:09:11;96435.50;;;31.83;25.06
55149;BME280;49539;48.160;11.530;2022-07-18T13:11:36;96440.72;;;31.79;25.63
55149;BME280;49539;48.160;11.530;2022-07-18T13:14:06;96433.53;;;31.70;26.01
55149;BME280;49539;48.160;11.530;2022-07-18T13:16:31;96430.03;;;31.56;24.79
55149;BME280;49539;48.160;11.530;2022-07-18T13:18:57;96425.38;;;32.08;24.35
55149;BME280;49539;48.160;11.530;2022-07-18T13:21:22;96426.34;;;32.11;24.93
55149;BME280;49539;48.160;11.530;2022-07-18T13:23:48;96430.22;;;32.29;22.93
55149;BME280;49539;48.160;11.530;2022-07-18T13:26:13;96426.19;;;32.17;23.13
55149;BME280;49539;48.160;11.530;2022-07-18T13:28:38;96428.00;;;32.06;23.56
55149;BME280;49539;48.160;11.530;2022-07-18T13:31:04;96430.53;;;31.89;25.53
55149;BME280;49539;48.160;11.530;2022-07-18T13:33:29;96423.72;;;32.13;25.27
55149;BME280;49539;48.160;11.530;2022-07-18T13:35:55;96423.00;;;32.49;24.15